Time;durP1;ratioP1;P1;durP2;ratioP2;P2;SDS_P1;SDS_P2;PMS_P1;PMS_P2;Temp;Humidity;BMP_temperature;BMP_pressure;BME280_temperature;BME280_humidity;BME280_pressure;Samples;Min_cycle;Max_cycle;Signal;HPM_P1;HPM_P2
2022/08/07 00:01:07;;;;;;;3.30;2.58;;;;;;;18.47;52.89;102577.22;5099056;28;20024;-63
2022/08/07 00:03:33;;;;;;;5.72;2.65;;;;;;;18.44;52.63;102583.41;5093895;28;20115;-63
2022/08/07 00:05:58;;;;;;;7.07;3.15;;;;;;;18.41;52.68;102573.53;5105347;28;20396;-63
2022/08/07 00:08:24;;;;;;;3.20;2.90;;;;;;;18.39;52.63;102576.59;5087952;28;20476;-63
2022/08/07 00:10:50;;;;;;;5.82;2.83;;;;;;;18.36;52.69;102573.47;5092650;28;20040;-62
2022/08/07 00:13:17;;;;;;;3.67;2.67;;;;;;;18.33;52.91;102579.63;5093422;28;20043;-63
2022/08/07 00:15:43;;;;;;;5.45;2.88;;;;;;;18.32;53.21;102572.31;5082941;28;20032;-64
2022/08/07 00:18:09;;;;;;;3.90;3.05;;;;;;;18.32;53.28;102572.31;5088645;28;20521;-63
2022/08/07 00:20:35;;;;;;;2.95;2.47;;;;;;;18.24;53.35;102569.97;5104444;28;20023;-64
2022/08/07 00:23:01;;;;;;;3.47;2.70;;;;;;;18.23;53.34;102566.28;5090096;28;20039;-64
2022/08/07 00:25:26;;;;;;;4.65;2.67;;;;;;;18.23;53.39;102557.84;5105336;28;20032;-64
2022/08/07 00:27:52;;;;;;;2.70;2.42;;;;;;;18.18;53.45;102560.59;5095281;28;20507;-64
2022/08/07 00:30:18;;;;;;;3.10;2.80;;;;;;;18.17;53.35;102552.44;5102420;28;20084;-64
2022/08/07 00:32:46;;;;;;;4.85;3.10;;;;;;;18.13;53.54;102552.13;5091087;28;20077;-64
2022/08/07 00:35:11;;;;;;;6.80;3.10;;;;;;;18.09;53.64;102557.41;5099498;28;20153;-64
2022/08/07 00:37:37;;;;;;;4.45;2.85;;;;;;;18.09;53.56;102548.97;5100419;28;20045;-64
2022/08/07 00:40:03;;;;;;;4.53;2.95;;;;;;;18.11;53.59;102549.56;5101661;28;20034;-64
2022/08/07 00:42:28;;;;;;;6.18;2.90;;;;;;;18.06;53.92;102543.03;5097636;28;20047;-64
2022/08/07 00:44:53;;;;;;;3.97;3.20;;;;;;;18.05;53.91;102539.38;5103195;28;20012;-64
2022/08/07 00:47:18;;;;;;;4.15;2.85;;;;;;;18.00;53.97;102541.25;5091796;28;20549;-64
2022/08/07 00:49:44;;;;;;;4.85;3.15;;;;;;;17.92;53.61;102545.41;5096711;28;20039;-64
2022/08/07 00:52:09;;;;;;;3.50;2.85;;;;;;;17.92;54.08;102534.16;5091645;28;20612;-64
2022/08/07 00:54:34;;;;;;;6.90;3.33;;;;;;;17.91;54.18;102540.88;5103788;28;20020;-64
2022/08/07 00:57:00;;;;;;;6.15;2.90;;;;;;;17.87;54.28;102545.31;5099573;28;20386;-64
2022/08/07 00:59:26;;;;;;;5.00;3.42;;;;;;;17.82;54.40;102534.03;5094258;28;20676;-64
2022/08/07 01:01:52;;;;;;;4.20;3.17;;;;;;;17.80;54.33;102534.31;5107697;28;20035;-64
2022/08/07 01:04:17;;;;;;;4.72;3.15;;;;;;;17.74;54.40;102532.50;5107498;28;20031;-64
2022/08/07 01:06:46;;;;;;;9.98;3.10;;;;;;;17.68;54.88;102527.91;5095585;28;20039;-64
2022/08/07 01:09:11;;;;;;;3.53;3.20;;;;;;;17.71;54.66;102523.72;5098434;28;20047;-64
2022/08/07 01:11:37;;;;;;;4.35;3.28;;;;;;;17.67;54.73;102534.63;5098089;28;20035;-64
2022/08/07 01:14:02;;;;;;;7.68;3.72;;;;;;;17.65;54.78;102523.69;5095430;28;20196;-64
2022/08/07 01:16:28;;;;;;;4.32;3.88;;;;;;;17.60;55.01;102525.53;5087613;28;20028;-64
2022/08/07 01:18:54;;;;;;;4.93;3.53;;;;;;;17.54;55.23;102521.00;5088605;28;20023;-64
2022/08/07 01:21:23;;;;;;;5.80;3.40;;;;;;;17.47;55.33;102520.31;5106492;28;20023;-64
2022/08/07 01:23:49;;;;;;;7.95;3.45;;;;;;;17.49;55.25;102521.78;5090125;28;20028;-64
2022/08/07 01:26:16;;;;;;;5.78;3.67;;;;;;;17.49;55.12;102518.09;5086397;28;20483;-64
2022/08/07 01:28:46;;;;;;;4.82;3.50;;;;;;;17.43;55.42;102514.38;5090759;28;20032;-64
2022/08/07 01:31:12;;;;;;;3.80;3.40;;;;;;;17.42;55.72;102518.28;5090671;28;20024;-63
2022/08/07 01:33:37;;;;;;;6.63;4.20;;;;;;;17.40;55.45;102518.53;5088043;28;20035;-64
2022/08/07 01:36:03;;;;;;;6.80;3.75;;;;;;;17.39;55.44;102514.03;5098710;28;20027;-64
2022/08/07 01:38:29;;;;;;;7.65;3.55;;;;;;;17.38;55.56;102517.13;5091994;28;20028;-64
2022/08/07 01:40:59;;;;;;;5.15;3.60;;;;;;;17.32;55.44;102506.91;5088086;28;20036;-63
2022/08/07 01:43:27;;;;;;;5.97;3.88;;;;;;;17.27;55.36;102504.88;5090431;28;20490;-64
2022/08/07 01:45:54;;;;;;;5.90;3.97;;;;;;;17.26;55.40;102506.00;5097752;28;20081;-64
2022/08/07 01:48:20;;;;;;;5.78;4.13;;;;;;;17.23;55.58;102503.69;5088467;28;20052;-63
2022/08/07 01:50:51;;;;;;;5.90;3.53;;;;;;;17.21;55.76;102507.84;5088786;28;20028;-64
2022/08/07 01:53:20;;;;;;;5.10;4.03;;;;;;;17.24;55.67;102511.00;5087788;28;20157;-64
2022/08/07 01:55:49;;;;;;;5.13;4.30;;;;;;;17.18;55.85;102510.09;5095898;28;20020;-64
2022/08/07 01:58:18;;;;;;;8.07;4.18;;;;;;;17.17;55.92;102511.19;5097172;28;20020;-64
2022/08/07 02:00:48;;;;;;;9.07;4.00;;;;;;;17.15;55.79;102510.59;5098002;28;20032;-64
2022/08/07 02:03:17;;;;;;;6.07;4.18;;;;;;;17.16;55.79;102503.03;5094444;28;20028;-63
2022/08/07 02:05:51;;;;;;;5.85;3.80;;;;;;;17.12;55.65;102505.50;5094170;28;20076;-64
2022/08/07 02:08:19;;;;;;;5.80;4.40;;;;;;;17.06;55.83;102497.28;5084908;28;20512;-64
2022/08/07 02:10:48;;;;;;;4.85;3.83;;;;;;;17.08;56.02;102506.28;5090795;28;20093;-64
2022/08/07 02:13:15;;;;;;;5.82;4.25;;;;;;;17.06;56.15;102506.53;5091883;28;20036;-64
2022/08/07 02:15:42;;;;;;;6.65;4.30;;;;;;;17.05;55.94;102503.97;5107189;28;20020;-64
2022/08/07 02:18:11;;;;;;;6.03;3.92;;;;;;;17.03;56.08;102503.38;5097904;28;20455;-64
2022/08/07 02:20:38;;;;;;;5.90;4.53;;;;;;;17.01;56.08;102499.97;5100285;28;20031;-64
2022/08/07 02:23:06;;;;;;;5.18;4.40;;;;;;;16.96;56.20;102499.91;5096707;28;20024;-64
2022/08/07 02:25:35;;;;;;;7.63;4.25;;;;;;;16.93;56.00;102499.31;5108094;28;20026;-64
2022/08/07 02:28:01;;;;;;;7.60;4.20;;;;;;;16.89;56.32;102495.31;5098043;28;20028;-63
2022/08/07 02:30:28;;;;;;;8.60;4.38;;;;;;;16.88;56.39;102496.41;5103154;28;20020;-63
2022/08/07 02:32:56;;;;;;;5.13;4.18;;;;;;;16.86;56.19;102490.22;5101253;28;20812;-63
2022/08/07 02:35:23;;;;;;;6.53;3.90;;;;;;;16.81;56.50;102489.28;5111891;28;20027;-64
2022/08/07 02:37:50;;;;;;;6.47;4.28;;;;;;;16.79;56.63;102497.97;5097403;28;20483;-64
2022/08/07 02:40:16;;;;;;;4.75;3.97;;;;;;;16.77;56.45;102494.56;5106786;28;20028;-64
2022/08/07 02:42:43;;;;;;;6.38;4.30;;;;;;;16.75;56.91;102490.31;5099251;28;20364;-64
2022/08/07 02:45:12;;;;;;;7.70;4.75;;;;;;;16.69;56.67;102489.34;5104782;28;20035;-64
2022/08/07 02:47:38;;;;;;;6.38;4.15;;;;;;;16.70;56.40;102488.22;5094829;28;20437;-64
2022/08/07 02:50:04;;;;;;;6.45;4.20;;;;;;;16.64;56.65;102484.50;5090171;28;20044;-64
2022/08/07 02:53:05;;;;;;;5.57;4.03;;;;;;;16.79;55.70;102486.75;5098952;28;20031;-63
2022/08/07 02:55:34;;;;;;;6.10;3.90;;;;;;;16.61;56.73;102486.97;5050330;28;20059;-64
2022/08/07 02:58:06;;;;;;;6.35;4.30;;;;;;;16.56;56.80;102484.06;5092610;28;20032;-64
2022/08/07 03:00:37;;;;;;;5.82;4.30;;;;;;;16.57;56.94;102482.97;5092397;28;20033;-64
2022/08/07 03:03:04;;;;;;;5.85;4.55;;;;;;;16.53;56.76;102481.78;5092181;28;20028;-64
2022/08/07 03:05:31;;;;;;;8.70;4.50;;;;;;;16.49;56.85;102481.44;5103611;28;20039;-63
2022/08/07 03:07:57;;;;;;;5.95;4.43;;;;;;;16.44;56.95;102475.75;5092319;28;20066;-63
2022/08/07 03:10:23;;;;;;;6.50;4.60;;;;;;;16.42;56.98;102475.97;5096768;28;20028;-63
2022/08/07 03:12:49;;;;;;;6.93;4.05;;;;;;;16.42;57.17;102473.16;5092237;28;20027;-64
2022/08/07 03:15:16;;;;;;;8.13;4.38;;;;;;;16.41;56.97;102474.28;5111158;28;20114;-63
2022/08/07 03:17:42;;;;;;;7.68;4.65;;;;;;;16.37;57.14;102478.69;5095338;28;20110;-64
2022/08/07 03:20:09;;;;;;;6.55;4.60;;;;;;;16.36;57.22;102478.97;5109992;28;20051;-63
2022/08/07 03:22:36;;;;;;;8.27;4.50;;;;;;;16.39;57.44;102475.66;5096654;28;20028;-64
2022/08/07 03:25:02;;;;;;;6.55;4.65;;;;;;;16.34;57.26;102473.59;5107727;28;20028;-64
2022/08/07 03:27:28;;;;;;;7.93;4.10;;;;;;;16.32;57.11;102477.75;5095810;28;20040;-64
2022/08/07 03:29:54;;;;;;;9.50;4.60;;;;;;;16.29;57.13;102476.31;5108925;27;20023;-64
2022/08/07 03:32:32;;;;;;;7.82;4.20;;;;;;;16.32;57.09;102481.41;5095071;28;20035;-63
2022/08/07 03:35:01;;;;;;;5.97;4.53;;;;;;;16.30;57.21;102477.16;5106345;28;20032;-63
2022/08/07 03:37:29;;;;;;;6.70;3.92;;;;;;;16.26;57.43;102482.41;5093575;28;20027;-64
2022/08/07 03:39:56;;;;;;;9.45;4.35;;;;;;;16.22;57.41;102474.75;5109534;28;20143;-63
2022/08/07 03:42:22;;;;;;;5.28;4.15;;;;;;;16.17;57.37;102467.97;5107170;28;20032;-63
2022/08/07 03:44:48;;;;;;;5.53;4.13;;;;;;;16.20;57.08;102475.03;5106265;28;20399;-63
2022/08/07 03:47:14;;;;;;;7.03;4.50;;;;;;;16.16;57.24;102476.63;5104884;28;20067;-63
2022/08/07 03:49:41;;;;;;;7.85;4.28;;;;;;;16.16;57.36;102482.22;5095799;28;20122;-63
2022/08/07 03:52:08;;;;;;;5.38;4.13;;;;;;;16.12;57.24;102475.44;5101940;28;20040;-63
2022/08/07 03:54:34;;;;;;;5.60;4.50;;;;;;;16.08;57.40;102480.69;5090241;28;20447;-64
2022/08/07 03:57:00;;;;;;;9.20;4.85;;;;;;;16.06;57.38;102485.66;5092709;28;20032;-63
2022/08/07 03:59:26;;;;;;;6.78;4.47;;;;;;;16.07;57.55;102492.13;5088905;28;20060;-63
2022/08/07 04:01:54;;;;;;;6.57;4.35;;;;;;;16.05;57.74;102485.94;5090075;28;20119;-64
2022/08/07 04:04:19;;;;;;;8.63;4.70;;;;;;;16.05;57.75;102485.94;5088741;28;20032;-63
2022/08/07 04:06:45;;;;;;;6.22;4.40;;;;;;;16.01;57.73;102490.34;5090348;28;20490;-63
2022/08/07 04:09:11;;;;;;;5.82;4.13;;;;;;;16.01;57.64;102488.38;5088558;28;20020;-63
2022/08/07 04:11:37;;;;;;;8.05;4.60;;;;;;;15.99;57.78;102490.56;5089172;28;20028;-63
2022/08/07 04:14:03;;;;;;;6.82;4.47;;;;;;;15.94;57.96;102496.91;5086900;28;20040;-63
2022/08/07 04:16:29;;;;;;;5.65;4.90;;;;;;;15.94;57.79;102496.91;5070301;28;20037;-63
2022/08/07 04:18:54;;;;;;;9.20;5.30;;;;;;;15.93;58.06;102498.03;5085712;28;20024;-64
2022/08/07 04:21:20;;;;;;;6.45;4.90;;;;;;;15.90;57.83;102492.91;5085774;28;20107;-64
2022/08/07 04:23:46;;;;;;;5.75;4.50;;;;;;;15.92;58.02;102496.34;5090441;28;20060;-64
2022/08/07 04:26:12;;;;;;;4.80;4.30;;;;;;;15.89;58.07;102498.78;5082525;28;20024;-63
2022/08/07 04:28:39;;;;;;;7.43;5.10;;;;;;;15.80;58.21;102501.13;5090413;28;20038;-64
2022/08/07 04:31:05;;;;;;;5.82;5.03;;;;;;;15.82;58.17;102498.91;5089404;28;20024;-63
2022/08/07 04:33:32;;;;;;;7.63;4.97;;;;;;;15.86;58.71;102510.47;5092354;28;20028;-63
2022/08/07 04:35:59;;;;;;;7.68;5.07;;;;;;;15.85;58.63;102514.38;5083455;28;20039;-63
2022/08/07 04:38:25;;;;;;;5.85;5.28;;;;;;;15.84;58.81;102512.69;5092384;28;20022;-63
2022/08/07 04:40:51;;;;;;;6.60;5.40;;;;;;;15.81;58.90;102505.63;5092709;28;20024;-63
2022/08/07 04:43:20;;;;;;;7.32;5.32;;;;;;;15.86;58.57;102502.91;5091863;28;20157;-64
2022/08/07 04:46:01;;;;;;;8.20;5.65;;;;;;;15.84;58.56;102498.69;5088824;28;20029;-63
2022/08/07 04:48:52;;;;;;;6.60;5.32;;;;;;;15.97;58.08;102505.94;5087473;28;20491;-63
2022/08/07 04:51:40;;;;;;;8.02;4.90;;;;;;;15.88;58.70;102506.34;5071154;28;20047;-63
2022/08/07 04:54:36;;;;;;;6.75;5.45;;;;;;;15.94;58.48;102512.88;5062390;28;20083;-63
2022/08/07 04:57:27;;;;;;;8.48;5.72;;;;;;;15.97;58.31;102511.53;5067060;28;20491;-63
2022/08/07 05:00:01;;;;;;;9.25;5.80;;;;;;;15.90;58.93;102511.66;5057730;28;20124;-63
2022/08/07 05:02:43;;;;;;;8.30;6.07;;;;;;;15.93;59.01;102511.19;5066743;28;20025;-63
2022/08/07 05:05:36;;;;;;;8.10;6.18;;;;;;;15.94;59.38;102508.13;5087836;28;20028;-63
2022/08/07 05:08:33;;;;;;;8.02;6.45;;;;;;;16.03;58.61;102521.72;5053587;28;20102;-63
2022/08/07 05:11:28;;;;;;;8.93;6.07;;;;;;;15.95;59.17;102521.06;5064047;28;20483;-63
2022/08/07 05:14:02;;;;;;;9.07;5.95;;;;;;;15.95;59.41;102515.44;5071343;28;20044;-63
2022/08/07 05:16:31;;;;;;;7.82;6.65;;;;;;;15.93;59.93;102508.38;5082116;28;20020;-63
2022/08/07 05:19:02;;;;;;;7.97;6.30;;;;;;;15.95;60.06;102523.84;5085431;28;20054;-63
2022/08/07 05:21:29;;;;;;;11.60;6.53;;;;;;;15.97;60.25;102522.75;5077386;28;20024;-63
2022/08/07 05:24:05;;;;;;;9.68;6.68;;;;;;;15.97;60.05;102523.59;5077824;28;20428;-63
2022/08/07 05:26:32;;;;;;;7.00;6.30;;;;;;;15.97;60.19;102528.34;5063101;28;20024;-63
2022/08/07 05:29:00;;;;;;;7.65;6.03;;;;;;;16.06;60.01;102532.44;5064536;28;20021;-63
2022/08/07 05:31:32;;;;;;;7.57;6.00;;;;;;;16.04;60.25;102531.84;5079569;28;20074;-63
2022/08/07 05:33:58;;;;;;;8.70;6.40;;;;;;;16.12;59.75;102520.25;5060826;28;20036;-64
2022/08/07 05:36:26;;;;;;;7.03;6.30;;;;;;;16.09;60.20;102531.94;5070547;28;20292;-63
2022/08/07 05:38:52;;;;;;;8.85;7.10;;;;;;;16.12;59.97;102534.25;5080817;28;20020;-63
2022/08/07 05:41:17;;;;;;;7.55;6.75;;;;;;;16.13;60.06;102533.16;5053598;28;20032;-63
2022/08/07 05:43:47;;;;;;;9.88;6.88;;;;;;;16.12;60.28;102537.06;5056686;28;20075;-63
2022/08/07 05:46:12;;;;;;;8.60;6.78;;;;;;;16.13;60.05;102528.41;5071540;28;20021;-63
2022/08/07 05:48:39;;;;;;;11.45;6.97;;;;;;;16.15;60.49;102539.34;5079443;28;20113;-63
2022/08/07 05:51:05;;;;;;;9.75;7.05;;;;;;;16.18;59.91;102524.84;5071621;28;20440;-63
2022/08/07 05:53:30;;;;;;;7.50;6.68;;;;;;;16.15;60.12;102525.34;5066500;28;20021;-63
2022/08/07 05:55:57;;;;;;;8.05;6.75;;;;;;;16.20;60.34;102539.47;5056302;28;20029;-63
2022/08/07 05:58:25;;;;;;;9.00;7.18;;;;;;;16.25;60.18;102533.09;5069635;28;20056;-63
2022/08/07 06:00:52;;;;;;;8.35;7.25;;;;;;;16.23;60.28;102544.56;5068729;28;20028;-63
2022/08/07 06:03:21;;;;;;;10.30;7.43;;;;;;;16.27;60.00;102534.56;5080423;28;20054;-63
2022/08/07 06:05:47;;;;;;;8.80;7.25;;;;;;;16.31;60.19;102532.97;5072567;28;20401;-63
2022/08/07 06:08:15;;;;;;;8.90;7.70;;;;;;;16.38;59.85;102536.44;5073308;28;20036;-63
2022/08/07 06:10:41;;;;;;;10.75;7.50;;;;;;;16.38;60.00;102533.63;5067191;28;20036;-63
2022/08/07 06:13:06;;;;;;;9.57;7.78;;;;;;;16.47;59.76;102539.69;5082423;28;20020;-63
2022/08/07 06:15:34;;;;;;;9.52;7.82;;;;;;;16.55;59.69;102536.50;5081148;28;20532;-63
2022/08/07 06:18:02;;;;;;;9.50;7.88;;;;;;;16.63;59.25;102543.63;5080523;28;20036;-63
2022/08/07 06:20:29;;;;;;;9.43;7.63;;;;;;;16.70;59.02;102535.88;5081936;28;20017;-64
2022/08/07 06:22:55;;;;;;;9.15;7.68;;;;;;;16.80;58.79;102540.88;5087302;28;20040;-64
2022/08/07 06:25:21;;;;;;;10.13;8.20;;;;;;;16.82;58.89;102542.34;5072903;28;20033;-64
2022/08/07 06:27:46;;;;;;;10.90;8.23;;;;;;;16.91;58.72;102540.78;5081051;28;20123;-63
2022/08/07 06:30:12;;;;;;;9.68;8.63;;;;;;;17.00;58.41;102537.56;5082047;28;20027;-63
2022/08/07 06:32:37;;;;;;;9.73;8.73;;;;;;;16.97;58.84;102546.47;5083275;28;20067;-63
2022/08/07 06:35:03;;;;;;;10.68;8.40;;;;;;;17.07;58.59;102543.84;5074182;28;20033;-63
2022/08/07 06:37:28;;;;;;;9.50;8.05;;;;;;;17.15;58.44;102546.22;5074419;28;20391;-63
2022/08/07 06:39:53;;;;;;;9.75;8.70;;;;;;;17.26;58.58;102539.69;5076443;28;20067;-63
2022/08/07 06:42:29;;;;;;;10.60;8.45;;;;;;;17.37;57.86;102543.47;5072324;28;20655;-64
2022/08/07 06:44:56;;;;;;;10.45;9.35;;;;;;;17.43;57.81;102543.28;5068878;28;20060;-64
2022/08/07 06:47:21;;;;;;;10.45;8.63;;;;;;;17.48;57.48;102539.69;5071093;28;20028;-64
2022/08/07 06:49:47;;;;;;;12.05;9.60;;;;;;;17.53;57.58;102537.00;5081906;28;20043;-64
2022/08/07 06:52:16;;;;;;;14.00;9.82;;;;;;;17.59;57.28;102537.91;5085369;28;20032;-64
2022/08/07 06:54:42;;;;;;;13.63;8.93;;;;;;;17.63;57.08;102534.31;5085898;28;20035;-64
2022/08/07 06:57:08;;;;;;;10.85;8.45;;;;;;;17.70;57.05;102530.47;5086716;28;20028;-64
2022/08/07 06:59:38;;;;;;;10.93;8.73;;;;;;;17.72;56.92;102529.09;5091652;28;20483;-64
2022/08/07 07:02:07;;;;;;;5.72;4.68;;;;;;;18.08;56.68;102523.97;5087005;28;20050;-65
2022/08/07 07:04:32;;;;;;;7.75;5.18;;;;;;;18.23;56.24;102526.06;5090639;28;20140;-63
2022/08/07 07:06:58;;;;;;;5.57;4.93;;;;;;;18.40;56.08;102513.63;5092076;28;20032;-64
2022/08/07 07:09:26;;;;;;;7.35;5.90;;;;;;;18.50;55.46;102512.88;5088084;28;20055;-64
2022/08/07 07:12:06;;;;;;;8.73;5.35;;;;;;;18.68;55.44;102527.69;5082965;28;20042;-64
2022/08/07 07:14:38;;;;;;;7.10;6.30;;;;;;;18.73;55.02;102528.59;5086244;28;20039;-66
2022/08/07 07:17:09;;;;;;;9.40;6.07;;;;;;;18.79;54.72;102529.50;5089624;28;20122;-65
2022/08/07 07:19:39;;;;;;;7.93;6.40;;;;;;;18.93;54.37;102527.06;5087203;28;20040;-65
2022/08/07 07:22:07;;;;;;;9.57;6.10;;;;;;;18.99;54.12;102537.28;5086861;28;20297;-65
2022/08/07 07:24:33;;;;;;;6.68;5.32;;;;;;;19.09;53.96;102526.91;5091177;28;20031;-65
2022/08/07 07:27:03;;;;;;;6.72;4.90;;;;;;;19.18;53.47;102524.47;5087834;28;20043;-64
2022/08/07 07:29:35;;;;;;;6.85;5.90;;;;;;;19.32;53.47;102522.84;5089140;28;20039;-65
2022/08/07 07:32:04;;;;;;;6.25;5.55;;;;;;;19.47;53.26;102521.25;5083816;28;20391;-64
2022/08/07 07:34:32;;;;;;;6.22;5.25;;;;;;;19.50;52.65;102517.91;5087615;28;20131;-63
2022/08/07 07:37:00;;;;;;;13.57;6.18;;;;;;;19.58;52.93;102528.66;5085041;28;20036;-62
2022/08/07 07:39:27;;;;;;;8.23;5.88;;;;;;;19.63;52.77;102516.59;5079321;28;20036;-63
2022/08/07 07:41:55;;;;;;;8.73;6.72;;;;;;;19.68;52.48;102520.28;5090625;28;20036;-63
2022/08/07 07:44:21;;;;;;;9.00;6.53;;;;;;;19.74;52.47;102510.75;5085291;28;20024;-62
2022/08/07 07:46:48;;;;;;;8.32;6.03;;;;;;;19.82;52.17;102500.91;5085951;28;20475;-62
2022/08/07 07:49:16;;;;;;;12.00;6.15;;;;;;;19.89;52.15;102506.31;5091967;28;20048;-64
2022/08/07 07:51:43;;;;;;;8.75;5.43;;;;;;;20.01;52.68;102501.28;5089220;28;20028;-64
2022/08/07 07:54:10;;;;;;;9.05;6.30;;;;;;;20.06;52.14;102501.28;5096098;28;20079;-64
2022/08/07 07:56:38;;;;;;;6.45;5.60;;;;;;;20.13;51.88;102499.03;5088657;28;20024;-64
2022/08/07 07:59:05;;;;;;;6.72;5.60;;;;;;;20.13;52.00;102496.22;5085329;28;20031;-66
2022/08/07 08:01:33;;;;;;;7.72;5.93;;;;;;;20.20;51.76;102501.56;5088158;28;20024;-64
2022/08/07 08:04:02;;;;;;;8.00;5.25;;;;;;;20.22;51.98;102500.19;5088147;28;20495;-64
2022/08/07 08:06:30;;;;;;;6.20;5.40;;;;;;;20.31;51.91;102494.84;5089998;28;20047;-63
2022/08/07 08:08:57;;;;;;;7.47;5.68;;;;;;;20.33;51.62;102496.28;5092797;28;20111;-64
2022/08/07 08:11:24;;;;;;;8.27;6.55;;;;;;;20.33;51.30;102501.06;5088271;28;20036;-64
2022/08/07 08:13:49;;;;;;;8.18;5.82;;;;;;;20.42;51.12;102496.56;5092022;28;20392;-66
2022/08/07 08:16:19;;;;;;;6.93;5.55;;;;;;;20.54;51.04;102507.59;5087405;28;20024;-64
2022/08/07 08:18:46;;;;;;;7.05;5.60;;;;;;;20.55;50.82;102504.53;5081841;28;20466;-64
2022/08/07 08:27:08;;;;;;;9.70;5.72;;;;;;;20.62;49.98;102503.38;5090486;28;20129;-64
2022/08/07 08:29:42;;;;;;;6.85;4.57;;;;;;;;;;5088040;28;20158;-64
2022/08/07 08:32:14;;;;;;;6.75;5.35;;;;;;;20.75;50.41;102500.00;5080152;28;20043;-64
2022/08/07 08:34:40;;;;;;;6.05;4.63;;;;;;;20.83;50.16;102511.59;5090994;28;20082;-63
2022/08/07 08:37:08;;;;;;;5.60;4.28;;;;;;;20.94;49.74;102508.75;5086168;28;20028;-64
2022/08/07 08:39:34;;;;;;;5.57;4.43;;;;;;;21.00;49.67;102510.44;5091836;28;20146;-64
2022/08/07 08:42:06;;;;;;;6.20;4.53;;;;;;;20.96;49.14;102504.50;5091367;28;20226;-64
2022/08/07 08:44:41;;;;;;;7.63;5.60;;;;;;;20.92;48.68;102508.19;5082026;28;20103;-63
2022/08/07 08:47:36;;;;;;;6.18;4.50;;;;;;;21.01;49.34;102512.13;5089950;28;20039;-63
2022/08/07 08:50:21;;;;;;;6.88;4.50;;;;;;;20.97;48.63;102500.56;5080713;28;20040;-63
2022/08/07 08:53:03;;;;;;;7.78;4.45;;;;;;;21.09;48.94;102508.72;5090950;28;20036;-63
2022/08/07 08:55:40;;;;;;;4.60;3.75;;;;;;;21.14;47.90;102505.88;5088357;28;20085;-64
2022/08/07 08:58:33;;;;;;;4.88;3.58;;;;;;;21.16;48.15;102508.44;5091374;28;20028;-64
2022/08/07 09:01:24;;;;;;;6.57;4.43;;;;;;;21.20;48.37;102510.41;5076982;28;20044;-63
2022/08/07 09:04:39;;;;;;;;;;;;;;;;;;;;;
2022/08/07 09:08:11;;;;;;;7.78;4.53;;;;;;;21.21;47.65;102494.31;5081526;28;20052;-68
2022/08/07 09:11:33;;;;;;;8.13;4.40;;;;;;;21.24;47.72;102493.75;4932371;28;20050;-67
2022/08/07 09:18:09;;;;;;;3.92;3.53;;;;;;;21.39;46.92;102502.22;4994146;28;20045;-66
2022/08/07 09:21:17;;;;;;;4.53;4.07;;;;;;;21.40;46.29;102503.06;5009936;28;20025;-67
2022/08/07 09:31:33;;;;;;;;;;;;;;;;;;;;;
2022/08/07 09:41:36;;;;;;;;;;;;;;;;;;;;;
2022/08/07 09:44:39;;;;;;;200.32;17.23;;;;;;;21.78;44.54;102487.41;4991319;28;20388;-66
2022/08/07 09:53:57;;;;;;;19.48;4.50;;;;;;;21.86;44.65;102469.00;5053494;28;20059;-67
2022/08/07 09:57:09;;;;;;;13.18;4.05;;;;;;;21.91;44.57;102466.13;5089532;28;20028;-65
2022/08/07 10:00:33;;;;;;;5.50;3.88;;;;;;;21.95;44.64;102465.25;5023908;28;20076;-68
2022/08/07 10:03:17;;;;;;;14.65;4.90;;;;;;;21.97;44.69;102460.16;4988817;28;20050;-64
2022/08/07 10:10:32;;;;;;;;;;;;;;;;;;;;;
2022/08/07 10:17:42;;;;;;;;;;;;;;;;;;;;;
2022/08/07 10:24:17;;;;;;;;;;;;;;;;;;;;;
2022/08/07 10:27:24;;;;;;;6.55;3.03;;;;;;;22.36;42.19;102442.41;4970752;28;20038;-66
2022/08/07 10:30:19;;;;;;;4.57;2.80;;;;;;;22.45;41.69;102442.63;4985804;28;20072;-70
2022/08/07 10:33:41;;;;;;;8.57;3.15;;;;;;;22.39;42.46;102424.81;5076353;28;20427;-66
2022/08/07 10:37:08;;;;;;;5.28;3.08;;;;;;;22.51;42.01;102424.44;5047990;28;20044;-65
2022/08/07 10:40:45;;;;;;;;;;;;;;;;;;;;;
2022/08/07 10:47:22;;;;;;;2.40;2.20;;;;;;;22.66;41.63;102415.81;4928343;29;20043;-69
2022/08/07 10:50:43;;;;;;;5.53;2.90;;;;;;;22.75;40.50;102424.50;4918684;29;20048;-65
2022/08/07 10:57:38;;;;;;;4.70;2.85;;;;;;;22.79;40.86;102417.97;4960599;28;20129;-66
2022/08/07 11:00:54;;;;;;;4.68;2.55;;;;;;;22.86;41.54;102417.59;4989600;28;20053;-67
2022/08/07 11:11:53;;;;;;;3.13;2.22;;;;;;;23.02;40.13;102398.50;4982522;28;20067;-67
2022/08/07 11:19:01;;;;;;;6.88;2.33;;;;;;;23.23;38.53;102391.47;4883779;28;20153;-65
2022/08/07 11:25:39;;;;;;;;;;;;;;;;;;;;;
2022/08/07 11:32:01;;;;;;;;;;;;;;;;;;;;;
2022/08/07 11:35:31;;;;;;;3.40;2.17;;;;;;;23.25;36.56;102379.81;5064342;28;20047;-66
2022/08/07 11:38:51;;;;;;;3.03;2.42;;;;;;;23.23;36.97;102374.47;5044133;28;20140;-65
2022/08/07 11:45:09;;;;;;;;;;;;;;;;;;;;;
2022/08/07 11:52:16;;;;;;;3.05;2.53;;;;;;;23.26;37.56;102362.53;5037017;28;20112;-64
2022/08/07 11:56:20;;;;;;;;;;;;;;;;;;;;;
2022/08/07 11:59:19;;;;;;;4.50;2.45;;;;;;;23.32;37.26;102351.97;4976235;28;20038;-64
2022/08/07 12:02:55;;;;;;;;;;;;;;;;;;;;;
2022/08/07 12:06:25;;;;;;;;;;;;;;;;;;;;;
2022/08/07 12:09:27;;;;;;;3.53;2.80;;;;;;;23.45;37.39;102356.88;4910517;28;20041;-65
2022/08/07 12:12:54;;;;;;;4.17;2.70;;;;;;;23.49;37.23;102354.28;4961122;28;20478;-66
2022/08/07 12:15:52;;;;;;;;;;;;;;;;;;;;;
2022/08/07 12:26:01;;;;;;;;;;;;;;;;;;;;;
2022/08/07 12:45:22;;;;;;;2.65;2.10;;;;;;;23.81;36.68;102333.72;5010782;28;20038;-66
2022/08/07 12:55:22;;;;;;;;;;;;;;;;;;;;;
2022/08/07 13:12:13;;;;;;;2.40;2.20;;;;;;;23.98;36.26;102310.50;4976349;28;20488;-64
2022/08/07 13:15:49;;;;;;;;;;;;;;;;;;;;;
2022/08/07 13:25:33;;;;;;;4.38;2.67;;;;;;;23.95;36.17;102305.44;4956426;28;20462;-65
2022/08/07 13:28:57;;;;;;;3.80;2.28;;;;;;;23.91;35.91;102293.88;4968046;28;20130;-65
2022/08/07 13:31:58;;;;;;;;;;;;;;;;;;;;;
2022/08/07 13:46:34;;;;;;;;;;;;;;;;;;;;;
2022/08/07 14:00:42;;;;;;;2.40;2.20;;;;;;;23.87;35.51;102274.94;4976683;28;20061;-67
2022/08/07 14:03:39;;;;;;;5.82;2.35;;;;;;;23.92;35.97;102272.03;5044448;28;20040;-66
2022/08/07 14:06:53;;;;;;;3.90;2.20;;;;;;;23.96;35.34;102273.94;5054678;28;20339;-66
2022/08/07 14:20:50;;;;;;;3.15;2.08;;;;;;;23.99;34.78;102263.97;4926844;29;20225;-65
2022/08/07 14:26:47;;;;;;;2.33;1.95;;;;;;;23.99;34.39;102266.81;4965356;28;20550;-63
2022/08/07 14:29:17;;;;;;;4.25;2.20;;;;;;;24.02;34.36;102266.19;4970982;28;20086;-63
2022/08/07 14:31:45;;;;;;;6.82;2.20;;;;;;;23.97;33.99;102255.78;4968476;28;20046;-64
2022/08/07 14:34:11;;;;;;;3.92;1.80;;;;;;;23.99;34.27;102263.97;5064211;28;20779;-63
2022/08/07 14:36:37;;;;;;;2.15;1.95;;;;;;;23.99;35.40;102253.47;5066794;28;20772;-63
2022/08/07 14:39:03;;;;;;;3.40;2.22;;;;;;;24.02;34.73;102254.84;5069613;28;20488;-63
2022/08/07 14:41:31;;;;;;;3.47;1.90;;;;;;;24.05;34.96;102257.06;5070331;28;20032;-63
2022/08/07 14:44:00;;;;;;;7.35;2.38;;;;;;;24.11;36.52;102252.97;5066787;28;20491;-63
2022/08/07 14:46:27;;;;;;;2.28;1.88;;;;;;;24.20;34.95;102255.91;5064710;28;20119;-64
2022/08/07 14:48:56;;;;;;;3.13;1.80;;;;;;;24.21;34.81;102255.63;5060863;28;20075;-64
2022/08/07 14:51:26;;;;;;;3.22;1.75;;;;;;;24.24;35.37;102266.34;5069592;28;20044;-65
2022/08/07 14:53:54;;;;;;;2.33;1.85;;;;;;;24.17;33.95;102257.41;5068955;28;20048;-65
2022/08/07 14:56:22;;;;;;;2.47;2.00;;;;;;;24.24;34.36;102254.97;5064697;28;20025;-65
2022/08/07 14:58:51;;;;;;;2.83;1.90;;;;;;;24.23;34.64;102246.78;5067353;28;20034;-64
2022/08/07 15:01:17;;;;;;;2.08;1.70;;;;;;;24.24;33.60;102259.81;5072255;28;20028;-65
2022/08/07 15:03:44;;;;;;;3.40;1.88;;;;;;;24.24;34.07;102245.63;5062807;28;20064;-65
2022/08/07 15:06:13;;;;;;;2.22;1.88;;;;;;;24.29;33.82;102247.53;5066092;28;20039;-64
2022/08/07 15:08:49;;;;;;;2.95;2.00;;;;;;;24.29;33.91;102242.72;5067579;28;20111;-65
2022/08/07 15:11:21;;;;;;;2.95;1.80;;;;;;;24.33;33.80;102245.78;5061612;28;20024;-65
2022/08/07 15:14:02;;;;;;;1.60;1.50;;;;;;;24.30;33.92;102240.72;5065799;28;20024;-64
2022/08/07 15:16:49;;;;;;;2.05;1.70;;;;;;;24.31;34.05;102239.56;5068340;28;20032;-65